Time;durP1;ratioP1;P1;durP2;ratioP2;P2;SDS_P1;SDS_P2;PMS_P1;PMS_P2;Temp;Humidity;BMP_temperature;BMP_pressure;BME280_temperature;BME280_humidity;BME280_pressure;Samples;Min_cycle;Max_cycle;Signal;HPM_P1;HPM_P2
2021/11/05 00:00:21;;;;;;;7.95;7.00;;;7.00;82.00;;;;;;5016053;28;20058;-67
2021/11/05 00:02:47;;;;;;;7.80;6.45;;;7.00;82.10;;;;;;5013109;28;20033;-67
2021/11/05 00:05:13;;;;;;;6.97;5.90;;;7.00;82.10;;;;;;5008462;28;20049;-66
2021/11/05 00:07:39;;;;;;;7.93;6.15;;;7.00;82.20;;;;;;5013574;28;20456;-67
2021/11/05 00:10:06;;;;;;;9.27;7.05;;;7.00;82.10;;;;;;5010801;28;20034;-66
2021/11/05 00:12:31;;;;;;;7.97;6.70;;;7.00;82.00;;;;;;5005363;28;20038;-67
2021/11/05 00:14:57;;;;;;;7.25;6.13;;;7.00;82.00;;;;;;5013308;28;20034;-67
2021/11/05 00:17:22;;;;;;;7.35;5.95;;;7.00;82.00;;;;;;5008158;28;20057;-67
2021/11/05 00:19:48;;;;;;;7.03;6.32;;;7.10;82.00;;;;;;5010481;28;20033;-67
2021/11/05 00:22:14;;;;;;;7.90;6.57;;;7.10;82.10;;;;;;5012687;28;20132;-67
2021/11/05 00:24:39;;;;;;;8.32;6.95;;;7.10;82.20;;;;;;5011230;28;20037;-67
2021/11/05 00:27:05;;;;;;;8.15;6.88;;;7.10;82.20;;;;;;5010046;28;20534;-67
2021/11/05 00:29:31;;;;;;;7.90;6.72;;;7.10;82.20;;;;;;5012527;28;20042;-67
2021/11/05 00:31:56;;;;;;;9.27;7.05;;;7.10;82.00;;;;;;5012046;28;20053;-66
2021/11/05 00:34:22;;;;;;;8.15;6.50;;;7.10;82.00;;;;;;5011200;28;20062;-67
2021/11/05 00:36:48;;;;;;;8.88;6.80;;;7.10;82.10;;;;;;5015498;28;20622;-68
2021/11/05 00:39:15;;;;;;;8.00;6.55;;;7.10;82.10;;;;;;5013021;28;20042;-66
2021/11/05 00:41:41;;;;;;;7.53;6.57;;;7.10;82.00;;;;;;5007058;28;20103;-67
2021/11/05 00:44:07;;;;;;;9.70;6.75;;;7.10;82.00;;;;;;5015507;28;20397;-67
2021/11/05 00:46:33;;;;;;;8.15;7.03;;;7.10;81.90;;;;;;5006456;28;20040;-67
2021/11/05 00:49:02;;;;;;;7.88;6.88;;;7.10;81.90;;;;;;5010642;28;20034;-66
2021/11/05 00:51:28;;;;;;;11.23;7.45;;;7.10;82.70;;;;;;5015097;28;20033;-67
2021/11/05 00:53:54;;;;;;;9.32;7.40;;;7.10;81.90;;;;;;5015930;28;20512;-68
2021/11/05 00:56:20;;;;;;;8.48;6.93;;;7.10;81.90;;;;;;5012181;28;20053;-68
2021/11/05 00:58:46;;;;;;;7.85;6.38;;;7.10;81.90;;;;;;5013277;28;20412;-67
2021/11/05 01:01:11;;;;;;;9.75;7.07;;;7.10;81.90;;;;;;5009912;28;20056;-67
2021/11/05 01:03:37;;;;;;;8.60;7.32;;;7.10;81.90;;;;;;5015285;28;20188;-67
2021/11/05 01:06:03;;;;;;;10.85;7.53;;;7.10;81.90;;;;;;5010376;28;20037;-68
2021/11/05 01:08:28;;;;;;;10.50;8.23;;;7.10;81.90;;;;;;5013747;28;20034;-68
2021/11/05 01:10:54;;;;;;;11.68;7.95;;;7.00;81.90;;;;;;5003104;28;20665;-68
2021/11/05 01:13:20;;;;;;;9.23;7.88;;;7.10;82.00;;;;;;5007916;28;20391;-69
2021/11/05 01:15:46;;;;;;;10.93;8.30;;;7.10;82.80;;;;;;5007125;28;20041;-68
2021/11/05 01:18:11;;;;;;;10.68;8.73;;;7.00;82.00;;;;;;5013217;28;20042;-67
2021/11/05 01:20:39;;;;;;;9.95;8.32;;;7.00;81.90;;;;;;5012069;28;20037;-68
2021/11/05 01:23:05;;;;;;;11.65;8.77;;;7.10;82.00;;;;;;5015531;28;20083;-68
2021/11/05 01:25:31;;;;;;;10.65;8.40;;;7.00;82.00;;;;;;5008822;28;20038;-68
2021/11/05 01:27:56;;;;;;;12.27;9.30;;;7.00;82.10;;;;;;5009211;28;20064;-68
2021/11/05 01:30:22;;;;;;;11.52;8.52;;;7.00;82.20;;;;;;5007353;28;20509;-68
2021/11/05 01:32:49;;;;;;;11.52;8.52;;;7.00;82.20;;;;;;5011787;28;20029;-68
2021/11/05 01:35:16;;;;;;;12.52;8.82;;;7.00;82.20;;;;;;5011027;28;20076;-68
2021/11/05 01:37:42;;;;;;;12.40;8.85;;;6.90;82.20;;;;;;5009564;28;20034;-68
2021/11/05 01:40:09;;;;;;;9.88;8.63;;;6.90;82.20;;;;;;5009319;28;20036;-68
2021/11/05 01:42:35;;;;;;;11.30;8.35;;;7.00;82.50;;;;;;5012581;28;20096;-68
2021/11/05 01:45:02;;;;;;;11.23;8.60;;;7.00;82.50;;;;;;5007116;28;20040;-68
2021/11/05 01:47:27;;;;;;;10.65;8.02;;;7.00;82.50;;;;;;5011008;28;20485;-67
2021/11/05 01:49:53;;;;;;;9.52;7.95;;;7.00;82.40;;;;;;5008332;28;20082;-67
2021/11/05 01:52:18;;;;;;;8.23;7.30;;;7.00;82.50;;;;;;5005929;28;20050;-68
2021/11/05 01:54:45;;;;;;;8.52;7.40;;;7.00;82.40;;;;;;5012849;28;20041;-68
2021/11/05 01:57:10;;;;;;;9.48;7.75;;;7.00;82.30;;;;;;5012138;28;20034;-68
2021/11/05 01:59:38;;;;;;;8.10;6.85;;;7.00;82.20;;;;;;5013246;28;20055;-68
2021/11/05 02:02:07;;;;;;;9.98;7.20;;;7.10;82.20;;;;;;5005275;28;20030;-68
2021/11/05 02:04:33;;;;;;;8.07;7.07;;;7.00;82.00;;;;;;5011206;28;20087;-66
2021/11/05 02:06:59;;;;;;;7.05;6.35;;;7.00;82.10;;;;;;5004280;28;20096;-68
2021/11/05 02:09:27;;;;;;;7.63;6.32;;;7.10;82.00;;;;;;5009581;28;20030;-68
2021/11/05 02:11:57;;;;;;;7.22;5.57;;;7.00;82.10;;;;;;5002103;28;20037;-68
2021/11/05 02:14:25;;;;;;;6.15;5.40;;;7.00;81.90;;;;;;5007072;28;20096;-67
2021/11/05 02:16:55;;;;;;;6.45;5.40;;;7.00;81.90;;;;;;5011185;28;20057;-68
2021/11/05 02:19:23;;;;;;;7.03;5.60;;;7.00;81.90;;;;;;5011763;28;20030;-67
2021/11/05 02:21:52;;;;;;;5.85;5.25;;;7.10;81.90;;;;;;5009145;28;20129;-67
2021/11/05 02:24:19;;;;;;;6.05;5.18;;;7.10;81.80;;;;;;5005232;28;20030;-68
2021/11/05 02:26:45;;;;;;;6.18;5.30;;;7.10;81.90;;;;;;5003896;28;20367;-67
2021/11/05 02:29:12;;;;;;;7.97;5.35;;;7.10;81.80;;;;;;5005327;28;20575;-68
2021/11/05 02:31:39;;;;;;;5.97;5.38;;;7.10;81.90;;;;;;5008660;28;20061;-67
2021/11/05 02:34:04;;;;;;;6.18;5.45;;;7.10;81.80;;;;;;5008088;28;20026;-67
2021/11/05 02:36:30;;;;;;;5.30;4.80;;;7.10;81.90;;;;;;5009823;28;20041;-68
2021/11/05 02:38:58;;;;;;;6.20;5.10;;;7.10;81.90;;;;;;5010088;28;20030;-67
2021/11/05 02:41:24;;;;;;;6.38;4.97;;;7.10;81.90;;;;;;5013549;28;20025;-67
2021/11/05 02:43:51;;;;;;;5.65;5.03;;;7.10;81.90;;;;;;5005969;28;20034;-67
2021/11/05 02:46:17;;;;;;;6.78;5.28;;;7.10;81.90;;;;;;5009700;28;20034;-68
2021/11/05 02:48:43;;;;;;;5.85;5.05;;;7.20;81.90;;;;;;5010770;28;20032;-68
2021/11/05 02:51:10;;;;;;;6.35;5.03;;;7.20;81.70;;;;;;5007344;28;20041;-67
2021/11/05 02:53:39;;;;;;;5.55;5.05;;;7.20;81.60;;;;;;5009094;28;20033;-66
2021/11/05 02:56:05;;;;;;;6.30;5.20;;;7.20;81.60;;;;;;5008179;28;20030;-67
2021/11/05 02:58:31;;;;;;;6.60;5.57;;;7.20;81.50;;;;;;5008193;28;20686;-67
2021/11/05 03:00:59;;;;;;;6.50;5.20;;;7.30;81.60;;;;;;5011084;28;20042;-68
2021/11/05 03:03:25;;;;;;;6.38;5.35;;;7.20;81.50;;;;;;5011375;28;20093;-68
2021/11/05 03:05:51;;;;;;;7.80;5.00;;;7.30;81.50;;;;;;5010653;28;20116;-67
2021/11/05 03:08:16;;;;;;;6.57;4.95;;;7.30;81.50;;;;;;5007185;28;20196;-65
2021/11/05 03:10:42;;;;;;;5.65;5.05;;;7.30;81.40;;;;;;5003106;28;20041;-67
2021/11/05 03:13:07;;;;;;;5.85;4.97;;;7.30;81.30;;;;;;5012448;28;20056;-66
2021/11/05 03:15:33;;;;;;;6.82;5.07;;;7.30;81.20;;;;;;5013472;28;20033;-67
2021/11/05 03:18:00;;;;;;;5.85;5.25;;;7.30;81.20;;;;;;5010641;28;20123;-65
2021/11/05 03:20:27;;;;;;;5.78;5.18;;;7.30;81.10;;;;;;5007962;28;20026;-66
2021/11/05 03:22:53;;;;;;;8.02;5.45;;;7.30;81.00;;;;;;5012994;28;20120;-67
2021/11/05 03:25:19;;;;;;;6.05;5.45;;;7.30;81.00;;;;;;5008708;28;20501;-66
2021/11/05 03:27:45;;;;;;;7.38;5.82;;;7.30;81.00;;;;;;5014793;28;20521;-66
2021/11/05 03:30:12;;;;;;;6.15;5.47;;;7.30;81.10;;;;;;5008823;28;20038;-66
2021/11/05 03:32:39;;;;;;;7.03;6.05;;;7.30;81.20;;;;;;5012324;28;20037;-67
2021/11/05 03:35:07;;;;;;;9.30;6.68;;;7.30;81.20;;;;;;5011459;28;20673;-67
2021/11/05 03:37:34;;;;;;;8.88;6.68;;;7.30;81.20;;;;;;5010929;28;20128;-67
2021/11/05 03:40:01;;;;;;;9.80;7.32;;;7.30;81.20;;;;;;5016361;28;20044;-67
2021/11/05 03:42:28;;;;;;;7.57;6.55;;;7.30;81.30;;;;;;5006285;28;20064;-67
2021/11/05 03:44:53;;;;;;;8.35;6.93;;;7.30;81.30;;;;;;5007404;28;20038;-66
2021/11/05 03:47:19;;;;;;;9.20;7.40;;;7.30;81.30;;;;;;5008968;28;20029;-66
2021/11/05 03:49:45;;;;;;;9.48;7.53;;;7.30;81.30;;;;;;5017485;28;20053;-67
2021/11/05 03:52:11;;;;;;;9.80;7.28;;;7.30;81.20;;;;;;5013480;28;20501;-67
2021/11/05 03:54:36;;;;;;;9.82;7.80;;;7.30;81.20;;;;;;5006909;28;20521;-67
2021/11/05 03:57:02;;;;;;;9.43;7.88;;;7.30;81.20;;;;;;5007801;28;20445;-66
2021/11/05 03:59:28;;;;;;;9.85;7.63;;;7.30;81.30;;;;;;5014999;28;20122;-65
2021/11/05 04:01:53;;;;;;;10.60;8.35;;;7.30;81.40;;;;;;5012853;28;20074;-69
2021/11/05 04:04:19;;;;;;;10.90;8.68;;;7.30;81.40;;;;;;5010079;28;20056;-68
2021/11/05 04:06:46;;;;;;;9.55;8.13;;;7.30;81.50;;;;;;5010953;28;20041;-68
2021/11/05 04:09:11;;;;;;;10.68;8.05;;;7.30;81.50;;;;;;5008774;28;20034;-68
2021/11/05 04:11:37;;;;;;;10.85;8.63;;;7.30;81.50;;;;;;5009463;28;20040;-67
2021/11/05 04:14:03;;;;;;;11.95;9.07;;;7.30;81.40;;;;;;5007588;28;20208;-67
2021/11/05 04:16:29;;;;;;;11.43;8.95;;;7.30;81.40;;;;;;5016305;28;20104;-69
2021/11/05 04:18:54;;;;;;;11.88;9.15;;;7.40;81.40;;;;;;5007919;28;20038;-69
2021/11/05 04:21:21;;;;;;;11.15;8.85;;;7.40;81.40;;;;;;5008348;28;20080;-68
2021/11/05 04:23:46;;;;;;;12.73;9.60;;;7.40;81.40;;;;;;5007120;28;20518;-67
2021/11/05 04:26:12;;;;;;;13.80;9.35;;;7.40;81.40;;;;;;5005610;28;20038;-68
2021/11/05 04:28:38;;;;;;;11.70;9.05;;;7.40;81.50;;;;;;5007267;28;20065;-68
2021/11/05 04:31:03;;;;;;;10.95;9.25;;;7.40;81.40;;;;;;5005459;28;20045;-68
2021/11/05 04:33:31;;;;;;;12.45;9.07;;;7.40;81.30;;;;;;5012148;28;20080;-68
2021/11/05 04:35:58;;;;;;;11.75;9.55;;;7.40;81.40;;;;;;5007559;28;20026;-67
2021/11/05 04:38:24;;;;;;;12.45;9.60;;;7.40;81.40;;;;;;5006646;28;20037;-68
2021/11/05 04:40:50;;;;;;;11.05;9.15;;;7.40;81.40;;;;;;5006349;28;20140;-67
2021/11/05 04:43:16;;;;;;;11.57;8.82;;;7.40;81.30;;;;;;5006681;28;20142;-67
2021/11/05 04:45:41;;;;;;;12.18;9.18;;;7.40;81.30;;;;;;5008051;28;20574;-68
2021/11/05 04:48:07;;;;;;;11.88;9.05;;;7.40;81.20;;;;;;5006350;28;20055;-68
2021/11/05 04:50:34;;;;;;;13.35;9.25;;;7.50;81.30;;;;;;5010434;28;20037;-66
2021/11/05 04:53:00;;;;;;;13.85;9.18;;;7.40;81.20;;;;;;5013258;28;20038;-68
2021/11/05 04:55:26;;;;;;;12.77;9.10;;;7.40;81.20;;;;;;5008404;28;20915;-67
2021/11/05 04:57:52;;;;;;;11.52;8.68;;;7.40;81.20;;;;;;5005681;28;20045;-67
2021/11/05 05:00:19;;;;;;;10.82;8.93;;;7.40;81.10;;;;;;5009664;28;20563;-68
2021/11/05 05:02:46;;;;;;;12.57;9.05;;;7.40;81.00;;;;;;5008903;28;20034;-68
2021/11/05 05:05:12;;;;;;;13.23;8.88;;;7.40;81.00;;;;;;5008511;28;20037;-68
2021/11/05 05:07:37;;;;;;;12.60;8.73;;;7.40;81.00;;;;;;5011312;28;20033;-68
2021/11/05 05:10:04;;;;;;;11.38;8.88;;;7.40;81.00;;;;;;5009429;28;20037;-68
2021/11/05 05:12:30;;;;;;;11.05;8.85;;;7.40;80.90;;;;;;5004946;28;20042;-68
2021/11/05 05:14:55;;;;;;;15.40;8.80;;;7.40;80.80;;;;;;5012054;28;20037;-67
2021/11/05 05:17:21;;;;;;;12.75;8.73;;;7.40;80.80;;;;;;5009127;28;20030;-67
2021/11/05 05:19:47;;;;;;;12.40;8.57;;;7.30;80.80;;;;;;5013476;28;20045;-68
2021/11/05 05:22:13;;;;;;;11.18;8.38;;;7.30;80.80;;;;;;5005850;28;20068;-67
2021/11/05 05:24:38;;;;;;;170.18;72.88;;;7.30;80.80;;;;;;5010559;28;20030;-68
2021/11/05 05:27:04;;;;;;;64.72;32.47;;;7.30;80.80;;;;;;5007188;28;20048;-68
2021/11/05 05:29:30;;;;;;;31.15;19.63;;;7.20;80.80;;;;;;5008539;28;20182;-68
2021/11/05 05:31:56;;;;;;;16.15;12.18;;;7.20;80.70;;;;;;5012413;28;20520;-69
2021/11/05 05:34:21;;;;;;;17.88;11.85;;;7.20;80.80;;;;;;5014112;28;20026;-67
2021/11/05 05:36:47;;;;;;;13.38;8.70;;;7.30;80.70;;;;;;5011359;28;20038;-68
2021/11/05 05:39:14;;;;;;;16.83;11.50;;;7.20;80.50;;;;;;5015719;28;20030;-67
2021/11/05 05:41:40;;;;;;;18.23;12.77;;;7.20;80.50;;;;;;5012580;28;20425;-67
2021/11/05 05:44:05;;;;;;;18.38;13.43;;;7.20;80.60;;;;;;5012042;28;20041;-68
2021/11/05 05:46:31;;;;;;;10.30;8.18;;;7.20;80.60;;;;;;5012631;28;20121;-68
2021/11/05 05:48:57;;;;;;;15.52;7.85;;;7.20;80.60;;;;;;5011201;28;20069;-68
2021/11/05 05:51:22;;;;;;;21.23;10.35;;;7.10;80.60;;;;;;5014329;28;20042;-67
2021/11/05 05:53:48;;;;;;;9.32;7.80;;;7.10;80.60;;;;;;5012589;28;20045;-68
2021/11/05 05:56:14;;;;;;;11.43;7.35;;;7.10;80.60;;;;;;5012116;28;20076;-68
2021/11/05 05:58:39;;;;;;;10.52;7.35;;;7.10;80.60;;;;;;5009796;28;20045;-68
2021/11/05 06:01:05;;;;;;;16.70;10.68;;;7.10;80.70;;;;;;5012243;28;20113;-68
2021/11/05 06:03:31;;;;;;;13.52;8.27;;;7.00;80.70;;;;;;5012158;28;20050;-68
2021/11/05 06:05:56;;;;;;;10.20;7.20;;;7.10;80.90;;;;;;5015198;28;20435;-68
2021/11/05 06:08:22;;;;;;;9.65;6.90;;;7.00;81.00;;;;;;5010060;28;20124;-68
2021/11/05 06:10:48;;;;;;;11.98;8.23;;;7.00;81.10;;;;;;5008917;28;20176;-68
2021/11/05 06:13:14;;;;;;;10.23;7.53;;;7.00;81.20;;;;;;5016684;28;20030;-69
2021/11/05 06:15:39;;;;;;;9.32;7.35;;;7.00;81.30;;;;;;5015457;28;20029;-68
2021/11/05 06:18:05;;;;;;;12.65;10.63;;;7.00;81.30;;;;;;5015377;28;20100;-68
2021/11/05 06:20:31;;;;;;;13.95;10.15;;;7.00;81.40;;;;;;5016863;28;20030;-68
2021/11/05 06:22:57;;;;;;;14.45;10.68;;;7.00;81.50;;;;;;5014229;28;20341;-68
2021/11/05 06:25:22;;;;;;;17.25;13.05;;;7.00;81.50;;;;;;5012614;28;20030;-67
2021/11/05 06:27:49;;;;;;;16.80;12.65;;;7.00;81.50;;;;;;5005198;28;20060;-68
2021/11/05 06:30:15;;;;;;;13.50;9.23;;;7.00;81.50;;;;;;5007220;28;20542;-69
2021/11/05 06:32:41;;;;;;;12.82;10.27;;;7.00;81.50;;;;;;5020401;28;20132;-68
2021/11/05 06:35:09;;;;;;;17.02;11.57;;;7.10;81.60;;;;;;5015918;28;20117;-68
2021/11/05 06:37:36;;;;;;;14.80;10.30;;;7.10;81.50;;;;;;5011140;28;20042;-68
2021/11/05 06:40:12;;;;;;;14.70;9.98;;;7.10;81.50;;;;;;5015471;28;20227;-68
2021/11/05 06:42:39;;;;;;;14.50;8.77;;;7.10;81.50;;;;;;5011139;28;20033;-67
2021/11/05 06:45:06;;;;;;;13.10;10.05;;;7.10;81.50;;;;;;5013061;28;20034;-68
2021/11/05 06:47:31;;;;;;;20.83;13.05;;;7.20;81.50;;;;;;5010642;28;20037;-67
2021/11/05 06:49:57;;;;;;;45.45;25.65;;;7.20;81.60;;;;;;5015704;28;20045;-67
2021/11/05 06:52:23;;;;;;;18.23;11.52;;;7.20;81.50;;;;;;5013897;28;20033;-68
2021/11/05 06:54:48;;;;;;;20.38;11.98;;;7.20;81.50;;;;;;5013567;28;20468;-68
2021/11/05 06:57:14;;;;;;;18.35;12.05;;;7.20;81.50;;;;;;5009669;28;20117;-68
2021/11/05 06:59:40;;;;;;;13.73;9.85;;;7.30;81.60;;;;;;5014950;28;20042;-68
2021/11/05 07:02:06;;;;;;;21.15;16.17;;;7.30;81.50;;;;;;5014650;28;20405;-68
2021/11/05 07:04:31;;;;;;;21.90;14.23;;;7.20;81.30;;;;;;5018666;28;20057;-66
2021/11/05 07:06:57;;;;;;;14.55;11.13;;;7.30;81.40;;;;;;5014611;28;20037;-68
2021/11/05 07:09:23;;;;;;;19.58;10.73;;;7.20;81.40;;;;;;5019922;28;20053;-68
2021/11/05 07:11:50;;;;;;;18.05;10.15;;;7.20;81.50;;;;;;5010536;28;20608;-68
2021/11/05 07:14:16;;;;;;;15.13;9.73;;;7.20;81.60;;;;;;5010807;28;20551;-68
2021/11/05 07:16:43;;;;;;;14.32;9.45;;;7.30;81.80;;;;;;5013739;28;20030;-68
2021/11/05 07:19:08;;;;;;;16.15;9.45;;;7.20;81.80;;;;;;5017304;28;20041;-68
2021/11/05 07:21:34;;;;;;;19.00;13.02;;;7.20;81.90;;;;;;5017910;28;20042;-67
2021/11/05 07:24:02;;;;;;;9.48;8.05;;;7.30;82.00;;;;;;5019525;28;20068;-68
2021/11/05 07:26:44;;;;;;;15.43;9.68;;;7.30;82.00;;;;;;5014156;28;20789;-68
2021/11/05 07:29:11;;;;;;;15.68;11.30;;;7.30;82.00;;;;;;5017990;28;20378;-68
2021/11/05 07:31:38;;;;;;;11.43;9.13;;;7.40;82.20;;;;;;5014992;28;20042;-68
2021/11/05 07:34:03;;;;;;;16.48;9.13;;;7.40;82.10;;;;;;5011485;28;20118;-67
2021/11/05 07:36:29;;;;;;;10.88;8.25;;;7.40;82.10;;;;;;5016494;28;20112;-69
2021/11/05 07:38:55;;;;;;;10.23;7.75;;;7.50;82.10;;;;;;5018664;28;20501;-68
2021/11/05 07:41:21;;;;;;;13.07;8.07;;;7.50;82.20;;;;;;5017768;28;20037;-68
2021/11/05 07:43:48;;;;;;;19.52;10.48;;;7.50;82.10;;;;;;5015933;28;20080;-68
2021/11/05 07:46:14;;;;;;;13.82;8.43;;;7.60;82.20;;;;;;5013165;28;20060;-68
2021/11/05 07:48:39;;;;;;;13.20;8.20;;;7.60;82.10;;;;;;5014069;28;20116;-69
2021/11/05 07:51:05;;;;;;;11.43;8.88;;;7.70;82.20;;;;;;5017069;28;20445;-68
2021/11/05 07:53:31;;;;;;;19.38;10.70;;;7.70;83.00;;;;;;5011463;28;20471;-67
2021/11/05 07:55:56;;;;;;;13.80;8.02;;;7.70;82.10;;;;;;5015710;28;20041;-67
2021/11/05 07:58:22;;;;;;;10.95;7.65;;;7.80;82.20;;;;;;5017487;28;20038;-68
2021/11/05 08:00:48;;;;;;;10.57;7.93;;;7.80;82.10;;;;;;5016276;28;20452;-68
2021/11/05 08:03:13;;;;;;;12.02;7.78;;;7.80;81.90;;;;;;5008588;28;20508;-69
2021/11/05 08:05:39;;;;;;;11.20;7.45;;;7.90;82.00;;;;;;5014923;28;20417;-68
2021/11/05 08:08:05;;;;;;;10.50;7.45;;;8.00;81.90;;;;;;5013690;28;20034;-68
2021/11/05 08:10:31;;;;;;;13.93;8.30;;;8.00;82.10;;;;;;5009344;28;20030;-68
2021/11/05 08:12:56;;;;;;;9.57;7.97;;;8.00;81.90;;;;;;5009452;28;20240;-67
2021/11/05 08:15:22;;;;;;;11.13;8.00;;;8.10;81.70;;;;;;5017054;28;20041;-65
2021/11/05 08:17:49;;;;;;;10.80;8.35;;;8.10;81.70;;;;;;5013210;28;20041;-68
2021/11/05 08:20:15;;;;;;;9.63;8.05;;;8.10;81.50;;;;;;5014154;28;20141;-66
2021/11/05 08:22:43;;;;;;;11.95;8.35;;;8.10;81.50;;;;;;5012771;28;20125;-68
2021/11/05 08:25:10;;;;;;;9.45;7.35;;;8.20;81.50;;;;;;5014915;28;21786;-68
2021/11/05 08:27:36;;;;;;;11.27;7.97;;;8.20;81.30;;;;;;5016371;28;20045;-68
2021/11/05 08:30:12;;;;;;;14.00;8.63;;;8.20;80.80;;;;;;5016479;28;20169;-67
2021/11/05 08:32:38;;;;;;;10.77;8.40;;;8.20;81.20;;;;;;5010191;28;20129;-68
2021/11/05 08:35:06;;;;;;;12.93;9.45;;;8.20;81.30;;;;;;5012924;28;20424;-68
2021/11/05 08:37:32;;;;;;;13.38;8.80;;;8.30;81.10;;;;;;5012926;28;20026;-68
2021/11/05 08:39:57;;;;;;;12.05;9.02;;;8.30;81.10;;;;;;5017332;28;20038;-67
2021/11/05 08:42:23;;;;;;;13.95;9.55;;;8.20;81.00;;;;;;5010537;28;20512;-68
2021/11/05 08:44:49;;;;;;;13.13;9.63;;;8.30;81.20;;;;;;5014759;28;20065;-69
2021/11/05 08:47:15;;;;;;;15.05;9.13;;;8.30;81.30;;;;;;5017148;28;20113;-68
2021/11/05 08:49:40;;;;;;;11.55;9.10;;;8.30;81.20;;;;;;5013853;28;20113;-68
2021/11/05 08:52:06;;;;;;;12.32;8.98;;;8.30;81.10;;;;;;5016582;28;20033;-68
2021/11/05 08:54:32;;;;;;;14.13;9.02;;;8.30;81.30;;;;;;5013939;28;20107;-68
2021/11/05 08:56:57;;;;;;;14.88;8.90;;;8.30;81.20;;;;;;5015062;28;20240;-66
2021/11/05 08:59:25;;;;;;;12.95;8.70;;;8.40;81.50;;;;;;5014539;28;20034;-66
2021/11/05 09:01:51;;;;;;;13.57;9.23;;;8.40;81.30;;;;;;5011383;28;20502;-66
2021/11/05 09:04:17;;;;;;;12.75;9.38;;;8.40;81.30;;;;;;5012612;28;20489;-66
2021/11/05 09:06:47;;;;;;;11.65;9.15;;;8.40;81.30;;;;;;5010589;28;20041;-66
2021/11/05 09:09:17;;;;;;;13.32;9.80;;;8.50;81.50;;;;;;5014669;28;20026;-66
2021/11/05 09:11:46;;;;;;;13.10;9.05;;;8.50;81.50;;;;;;5009732;28;20104;-66
2021/11/05 09:14:12;;;;;;;14.68;9.38;;;8.50;81.20;;;;;;5012970;28;20084;-66
2021/11/05 09:16:37;;;;;;;14.05;9.80;;;8.50;81.20;;;;;;5016984;28;20046;-66
2021/11/05 09:19:04;;;;;;;16.30;9.88;;;8.60;81.30;;;;;;5017656;28;20100;-66
2021/11/05 09:21:32;;;;;;;12.07;9.10;;;8.60;81.30;;;;;;5009881;28;20277;-66
2021/11/05 09:23:59;;;;;;;13.38;9.48;;;8.60;81.00;;;;;;5014844;28;20030;-66
2021/11/05 09:26:25;;;;;;;16.63;10.65;;;8.70;81.00;;;;;;5012706;28;20029;-66
2021/11/05 09:28:51;;;;;;;14.88;9.75;;;8.70;81.10;;;;;;5012947;28;20037;-67
2021/11/05 09:31:17;;;;;;;10.90;7.97;;;8.70;81.00;;;;;;5015571;28;20046;-67
2021/11/05 09:33:42;;;;;;;10.13;8.38;;;8.80;81.00;;;;;;5013650;28;20390;-66
2021/11/05 09:36:08;;;;;;;9.20;7.28;;;8.80;81.90;;;;;;5008301;28;20030;-66
2021/11/05 09:38:34;;;;;;;10.25;7.63;;;8.80;81.00;;;;;;5015704;28;20061;-66
2021/11/05 09:41:00;;;;;;;9.75;7.82;;;8.90;80.80;;;;;;5017009;28;20034;-66
2021/11/05 09:43:26;;;;;;;9.77;8.07;;;8.90;80.60;;;;;;5014429;28;20033;-66
2021/11/05 09:45:52;;;;;;;11.57;8.13;;;8.90;80.50;;;;;;5011415;28;20041;-66
2021/11/05 09:48:21;;;;;;;9.50;7.53;;;8.90;80.50;;;;;;5012798;28;20485;-66
2021/11/05 09:50:46;;;;;;;9.70;7.85;;;8.90;80.60;;;;;;5015488;28;20160;-66
2021/11/05 09:53:12;;;;;;;10.50;8.25;;;8.90;80.50;;;;;;5009344;28;20106;-67
2021/11/05 09:55:44;;;;;;;9.98;7.80;;;8.80;80.50;;;;;;5015552;28;20038;-66
2021/11/05 09:58:10;;;;;;;13.70;9.75;;;8.90;80.70;;;;;;5011414;28;20099;-65
2021/11/05 10:00:37;;;;;;;9.63;8.13;;;8.90;80.80;;;;;;5014316;28;20030;-66
2021/11/05 10:03:02;;;;;;;9.05;7.20;;;8.90;81.00;;;;;;5014522;28;20030;-66
2021/11/05 10:05:28;;;;;;;8.73;6.65;;;8.90;80.80;;;;;;5011773;28;20025;-65
2021/11/05 10:07:57;;;;;;;7.75;6.90;;;8.80;80.80;;;;;;5012008;28;20026;-66
2021/11/05 10:10:32;;;;;;;7.50;6.20;;;8.80;80.80;;;;;;5010966;28;20416;-66
2021/11/05 10:13:01;;;;;;;;;;;8.80;80.90;;;;;;5007799;28;20030;-66
2021/11/05 10:15:34;;;;;;;5.28;4.55;;;8.80;80.90;;;;;;5010499;28;19914;-65
2021/11/05 10:18:06;;;;;;;6.18;4.80;;;8.80;81.00;;;;;;5014305;28;20041;-66
2021/11/05 10:20:31;;;;;;;5.10;4.25;;;8.90;81.30;;;;;;5012471;28;20558;-66
2021/11/05 10:23:02;;;;;;;5.10;4.28;;;8.90;81.40;;;;;;5008150;28;20037;-66
2021/11/05 10:25:37;;;;;;;5.70;4.47;;;8.90;81.30;;;;;;5012238;28;20046;-66
2021/11/05 10:28:18;;;;;;;3.78;3.35;;;8.90;81.20;;;;;;5012519;28;20037;-66
2021/11/05 10:30:44;;;;;;;3.22;2.90;;;8.90;80.90;;;;;;5013062;28;20508;-67
2021/11/05 10:33:11;;;;;;;2.60;2.22;;;8.90;80.90;;;;;;5012765;28;20041;-66
2021/11/05 10:35:39;;;;;;;2.70;2.42;;;8.90;81.50;;;;;;5016664;28;20038;-66
2021/11/05 10:38:07;;;;;;;2.70;2.50;;;8.90;80.60;;;;;;5006083;28;20460;-66
2021/11/05 10:40:42;;;;;;;2.33;1.90;;;9.00;80.80;;;;;;5006447;28;20042;-66
2021/11/05 10:43:10;;;;;;;2.67;2.03;;;9.00;80.80;;;;;;5012817;28;20030;-67
2021/11/05 10:45:39;;;;;;;1.60;1.50;;;9.00;80.80;;;;;;5015121;28;20040;-66
2021/11/05 10:48:12;;;;;;;2.35;1.55;;;9.00;80.50;;;;;;5011676;28;20124;-66
2021/11/05 10:50:53;;;;;;;1.48;1.38;;;9.00;80.50;;;;;;5016275;28;20344;-67
2021/11/05 10:53:29;;;;;;;1.75;1.35;;;9.10;80.60;;;;;;5006199;28;20030;-67
2021/11/05 10:55:56;;;;;;;0.90;0.90;;;9.10;80.60;;;;;;5016253;28;20135;-66
2021/11/05 10:58:48;;;;;;;1.10;1.00;;;9.10;80.60;;;;;;5006020;28;20033;-66
2021/11/05 11:01:16;;;;;;;1.02;0.90;;;9.10;80.40;;;;;;5014405;28;21200;-66
2021/11/05 11:03:52;;;;;;;0.88;0.80;;;9.20;80.50;;;;;;5013582;28;20033;-67
2021/11/05 11:06:24;;;;;;;0.80;0.80;;;9.20;80.20;;;;;;5014552;28;20314;-66
2021/11/05 11:09:10;;;;;;;0.60;0.60;;;9.30;80.30;;;;;;5011891;28;20052;-66
2021/11/05 11:11:44;;;;;;;0.70;0.70;;;9.30;79.40;;;;;;5007808;28;20236;-66
2021/11/05 11:14:15;;;;;;;1.30;0.67;;;9.30;79.80;;;;;;5011022;28;20136;-66
2021/11/05 11:16:58;;;;;;;0.52;0.52;;;9.30;80.70;;;;;;5009645;28;20505;-66
2021/11/05 11:19:29;;;;;;;0.60;0.60;;;9.40;79.80;;;;;;5009834;28;20042;-66
2021/11/05 11:22:06;;;;;;;0.63;0.60;;;9.40;79.60;;;;;;5012940;28;20061;-66
2021/11/05 11:24:35;;;;;;;0.52;0.52;;;9.40;79.20;;;;;;5009164;28;20029;-67
2021/11/05 11:27:04;;;;;;;0.93;0.90;;;9.40;79.40;;;;;;5012710;28;20042;-66
2021/11/05 11:29:29;;;;;;;0.80;0.80;;;9.40;79.80;;;;;;5012058;28;20069;-66
2021/11/05 11:31:58;;;;;;;1.35;1.20;;;9.50;79.80;;;;;;5011583;28;20052;-66
2021/11/05 11:34:24;;;;;;;1.25;1.15;;;9.50;79.60;;;;;;5008232;28;20030;-66
2021/11/05 11:36:54;;;;;;;1.30;1.20;;;9.60;79.50;;;;;;5011367;28;20128;-65
2021/11/05 11:39:22;;;;;;;2.35;2.15;;;9.60;79.40;;;;;;5009443;28;20390;-66
2021/11/05 11:41:49;;;;;;;2.90;2.70;;;9.70;79.40;;;;;;5011490;28;20029;-67
2021/11/05 11:44:21;;;;;;;1.67;1.58;;;9.70;79.40;;;;;;5008980;28;20121;-66
2021/11/05 11:47:01;;;;;;;2.03;1.90;;;9.80;79.30;;;;;;5014263;28;20033;-66
2021/11/05 11:49:39;;;;;;;1.60;1.50;;;9.80;78.90;;;;;;5017877;28;20505;-67
2021/11/05 11:52:07;;;;;;;1.50;1.40;;;9.80;78.60;;;;;;5019187;28;20486;-67
2021/11/05 11:54:35;;;;;;;1.85;1.73;;;9.80;79.00;;;;;;5019958;28;20096;-67
2021/11/05 11:57:19;;;;;;;1.90;1.70;;;9.90;79.10;;;;;;5018292;28;20045;-67
2021/11/05 12:00:00;;;;;;;2.35;2.15;;;9.90;78.90;;;;;;5016020;28;20515;-67
2021/11/05 12:02:38;;;;;;;2.30;2.08;;;10.00;78.80;;;;;;5013099;28;20129;-67
2021/11/05 12:05:37;;;;;;;3.78;2.65;;;10.00;78.60;;;;;;5016904;28;20030;-66
2021/11/05 12:08:12;;;;;;;3.00;2.80;;;10.00;78.00;;;;;;5012409;28;20080;-67
2021/11/05 12:10:38;;;;;;;2.83;2.63;;;10.10;77.90;;;;;;5013748;28;20034;-66
2021/11/05 12:13:32;;;;;;;2.95;2.75;;;10.10;77.90;;;;;;5010490;28;20022;-67
2021/11/05 12:16:10;;;;;;;3.33;3.00;;;10.20;77.10;;;;;;5013832;28;20054;-66
2021/11/05 12:18:54;;;;;;;4.05;3.30;;;10.20;77.30;;;;;;5014999;28;20040;-67
2021/11/05 12:21:21;;;;;;;3.17;2.88;;;10.20;77.30;;;;;;5016933;28;20037;-66
2021/11/05 12:24:27;;;;;;;2.97;2.72;;;10.30;77.90;;;;;;5016623;28;20128;-67
2021/11/05 12:26:55;;;;;;;2.80;2.60;;;10.30;77.20;;;;;;5008200;28;20034;-67
2021/11/05 12:29:32;;;;;;;3.47;3.17;;;10.30;77.60;;;;;;5011065;28;20277;-66
2021/11/05 12:31:59;;;;;;;6.00;5.20;;;10.30;77.00;;;;;;5010959;28;20028;-67
2021/11/05 12:34:35;;;;;;;3.50;3.20;;;10.30;77.30;;;;;;5018169;28;20381;-67
2021/11/05 12:37:03;;;;;;;3.88;3.47;;;10.30;76.50;;;;;;5014534;28;20025;-66
2021/11/05 12:39:34;;;;;;;4.95;3.75;;;10.30;76.70;;;;;;5015160;28;20033;-66
2021/11/05 12:42:09;;;;;;;4.47;4.07;;;10.30;76.90;;;;;;5018737;28;20030;-66
2021/11/05 12:44:58;;;;;;;3.95;3.58;;;10.30;77.10;;;;;;5017118;28;20034;-67
2021/11/05 12:47:50;;;;;;;4.18;3.78;;;10.30;77.70;;;;;;5028243;28;20109;-68
2021/11/05 12:50:17;;;;;;;3.70;3.28;;;10.30;76.30;;;;;;5015034;28;20070;-67
2021/11/05 12:52:53;;;;;;;3.72;3.25;;;10.30;77.20;;;;;;5015984;28;20033;-67